createdAt,value
2018-06-17T00:03:32.950Z,16.50
2018-06-17T00:08:37.468Z,16.20
2018-06-17T00:13:42.023Z,16.00
2018-06-17T00:18:46.610Z,16.20
2018-06-17T00:23:51.085Z,16.30
2018-06-17T00:28:56.729Z,16.40
2018-06-17T00:34:01.366Z,16.30
2018-06-17T00:39:08.134Z,16.40
2018-06-17T00:44:12.634Z,16.40
2018-06-17T00:49:17.092Z,16.20
2018-06-17T00:54:21.592Z,16.00
2018-06-17T00:59:26.238Z,16.10
2018-06-17T01:04:30.792Z,16.10
2018-06-17T01:09:35.181Z,15.80
2018-06-17T01:14:39.646Z,15.60
2018-06-17T01:19:44.158Z,15.60
2018-06-17T01:24:48.715Z,15.50
2018-06-17T01:29:53.287Z,15.60
2018-06-17T01:34:57.831Z,15.80
2018-06-17T01:40:02.378Z,15.80
2018-06-17T01:45:06.794Z,15.80
2018-06-17T01:50:11.308Z,15.70
2018-06-17T01:55:15.993Z,15.40
2018-06-17T02:00:20.608Z,15.20
2018-06-17T02:05:30.548Z,15.20
2018-06-17T02:10:40.272Z,14.80
2018-06-17T02:15:44.758Z,14.30
2018-06-17T02:20:49.367Z,14.30
2018-06-17T02:25:53.834Z,14.30
2018-06-17T02:30:58.412Z,14.40
2018-06-17T02:36:03.146Z,14.40
2018-06-17T02:41:07.680Z,14.40
2018-06-17T02:46:17.196Z,14.30
2018-06-17T02:51:26.837Z,14.30
2018-06-17T02:56:31.951Z,14.50
2018-06-17T03:01:36.483Z,14.60
2018-06-17T03:06:41.113Z,14.50
2018-06-17T03:11:45.554Z,14.70
2018-06-17T03:16:49.976Z,14.60
2018-06-17T03:21:54.859Z,14.50
2018-06-17T03:27:04.502Z,14.20
2018-06-17T03:32:14.206Z,14.20
2018-06-17T03:37:18.836Z,14.20
2018-06-17T03:42:23.410Z,14.30
2018-06-17T03:47:27.943Z,14.60
2018-06-17T03:52:32.470Z,14.50
2018-06-17T03:57:37.051Z,14.40
2018-06-17T04:02:41.583Z,14.40
2018-06-17T04:07:46.254Z,14.50
2018-06-17T04:12:50.758Z,14.60
2018-06-17T04:17:55.240Z,14.70
2018-06-17T04:22:59.656Z,14.90
2018-06-17T04:28:04.152Z,15.20
2018-06-17T04:33:08.721Z,15.50
2018-06-17T04:38:13.360Z,15.70
2018-06-17T04:43:17.925Z,15.90
2018-06-17T04:48:22.491Z,16.00
2018-06-17T05:00:47.130Z,16.50
2018-06-17T05:05:51.852Z,16.70
2018-06-17T05:10:57.806Z,16.90
2018-06-17T05:16:02.748Z,17.20
2018-06-17T05:21:07.746Z,17.40
2018-06-17T05:26:12.557Z,17.60
2018-06-17T05:31:17.556Z,17.80
2018-06-17T05:36:22.358Z,17.90
2018-06-17T05:41:27.290Z,18.20
2018-06-17T05:46:32.913Z,18.50
2018-06-17T05:51:37.904Z,18.90
2018-06-17T05:56:42.756Z,19.20
2018-06-17T06:01:47.450Z,19.50
2018-06-17T06:06:55.245Z,19.70
2018-06-17T06:12:01.366Z,20.20
2018-06-17T06:17:06.526Z,20.60
2018-06-17T06:22:11.617Z,20.50
2018-06-17T06:27:16.494Z,20.40
2018-06-17T06:32:21.242Z,20.70
2018-06-17T06:37:26.112Z,20.70
2018-06-17T06:42:31.276Z,21.00
2018-06-17T06:47:36.918Z,20.90
2018-06-17T06:52:43.370Z,20.70
2018-06-17T06:57:48.390Z,20.40
2018-06-17T07:03:04.337Z,20.50
2018-06-17T07:08:20.191Z,20.80
2018-06-17T07:13:25.307Z,21.10
2018-06-17T07:18:32.758Z,21.30
2018-06-17T07:23:37.757Z,21.30
2018-06-17T07:29:02.532Z,21.80
2018-06-17T07:34:07.961Z,22.40
2018-06-17T07:40:25.297Z,22.70
2018-06-17T07:45:30.190Z,22.20
2018-06-17T07:50:46.490Z,22.00
2018-06-17T07:55:51.347Z,21.80
2018-06-17T08:00:56.106Z,22.00
2018-06-17T08:06:01.103Z,22.60
2018-06-17T08:11:06.092Z,22.80
2018-06-17T08:16:10.973Z,22.80
2018-06-17T08:21:16.225Z,23.30
2018-06-17T08:26:21.243Z,23.00
2018-06-17T08:31:26.152Z,23.40
2018-06-17T08:36:31.407Z,23.30
2018-06-17T08:41:37.669Z,23.20
2018-06-17T08:46:43.233Z,22.70
2018-06-17T08:51:48.195Z,22.00
2018-06-17T08:56:54.026Z,22.00
2018-06-17T09:01:59.101Z,21.70
2018-06-17T09:07:04.354Z,21.70
2018-06-17T09:12:09.185Z,21.90
2018-06-17T09:17:14.531Z,22.00
2018-06-17T09:22:20.082Z,22.70
2018-06-17T09:27:24.959Z,23.70
2018-06-17T09:32:30.090Z,23.30
2018-06-17T09:37:34.944Z,23.80
2018-06-17T09:42:40.821Z,23.70
2018-06-17T09:47:45.740Z,23.80
2018-06-17T09:52:50.907Z,23.00
2018-06-17T09:57:55.747Z,23.50
2018-06-17T10:03:01.504Z,23.70
2018-06-17T10:08:06.500Z,23.00
2018-06-17T10:13:11.397Z,23.10
2018-06-17T10:18:17.303Z,23.70
2018-06-17T10:23:22.394Z,24.30
2018-06-17T10:33:32.420Z,24.50
2018-06-17T10:38:37.687Z,24.80
2018-06-17T10:43:42.515Z,25.00
2018-06-17T10:48:47.780Z,25.30
2018-06-17T10:53:53.647Z,25.10
2018-06-17T10:58:58.495Z,24.90
2018-06-17T11:04:04.120Z,25.40
2018-06-17T11:09:09.369Z,25.20
2018-06-17T11:14:14.208Z,25.10
2018-06-17T11:19:18.852Z,25.30
2018-06-17T11:24:23.695Z,26.00
2018-06-17T11:29:28.687Z,26.80
2018-06-17T11:34:33.393Z,26.50
2018-06-17T11:39:38.306Z,26.00
2018-06-17T11:44:43.193Z,26.10
2018-06-17T11:49:48.602Z,26.10
2018-06-17T11:54:53.637Z,26.70
2018-06-17T11:59:58.510Z,26.20
2018-06-17T12:05:03.357Z,25.40
2018-06-17T12:10:08.241Z,25.70
2018-06-17T12:15:13.747Z,27.20
2018-06-17T12:20:18.824Z,28.30
2018-06-17T12:25:23.846Z,28.40
2018-06-17T12:30:28.545Z,28.20
2018-06-17T12:35:33.578Z,27.80
2018-06-17T12:40:38.489Z,27.00
2018-06-17T12:45:43.251Z,26.50
2018-06-17T12:50:49.477Z,26.00
2018-06-17T12:55:55.648Z,25.60
2018-06-17T13:01:00.662Z,25.40
2018-06-17T13:06:05.879Z,25.40
2018-06-17T13:11:10.738Z,25.50
2018-06-17T13:16:16.080Z,24.40
2018-06-17T13:21:21.267Z,24.10
2018-06-17T13:26:26.235Z,23.90
2018-06-17T13:31:31.135Z,23.80
2018-06-17T13:36:36.065Z,23.90
2018-06-17T13:41:40.925Z,24.60
2018-06-17T13:46:45.768Z,25.00
2018-06-17T13:51:50.911Z,24.70
2018-06-17T13:56:55.892Z,24.40
2018-06-17T14:02:00.664Z,24.10
2018-06-17T14:07:06.415Z,23.60
2018-06-17T14:12:11.415Z,23.30
2018-06-17T14:17:16.300Z,23.10
2018-06-17T14:22:21.112Z,23.30
2018-06-17T14:27:26.043Z,23.20
2018-06-17T14:32:31.074Z,23.20
2018-06-17T14:37:36.082Z,23.00
2018-06-17T14:42:45.990Z,22.90
2018-06-17T14:47:56.122Z,22.80
2018-06-17T14:53:04.800Z,22.70
2018-06-17T14:58:09.800Z,22.50
2018-06-17T15:03:14.608Z,22.40
2018-06-17T15:08:19.461Z,22.20
2018-06-17T15:13:24.429Z,21.90
2018-06-17T15:18:29.360Z,21.60
2018-06-17T15:23:35.488Z,21.20
2018-06-17T15:28:40.478Z,21.20
2018-06-17T15:33:50.467Z,21.30
2018-06-17T15:38:57.374Z,21.40
2018-06-17T15:44:02.385Z,21.40
2018-06-17T15:49:07.358Z,21.50
2018-06-17T15:54:12.563Z,22.20
2018-06-17T15:59:17.218Z,23.20
2018-06-17T16:04:23.033Z,25.10
2018-06-17T16:09:28.140Z,25.00
2018-06-17T16:14:37.940Z,23.80
2018-06-17T16:19:47.823Z,22.90
2018-06-17T16:24:52.880Z,22.50
2018-06-17T16:29:57.682Z,22.30
2018-06-17T16:35:02.517Z,22.10
2018-06-17T16:40:07.529Z,21.90
2018-06-17T16:45:12.286Z,21.70
2018-06-17T16:50:17.759Z,21.50
2018-06-17T16:56:31.296Z,21.30
2018-06-17T17:01:36.254Z,21.20
2018-06-17T17:06:41.070Z,21.10
2018-06-17T17:11:46.425Z,21.10
2018-06-17T17:16:51.632Z,21.20
2018-06-17T17:27:01.371Z,20.90
2018-06-17T17:32:10.892Z,20.60
2018-06-17T17:37:20.659Z,20.60
2018-06-17T17:42:26.046Z,20.40
2018-06-17T17:47:32.424Z,20.30
2018-06-17T17:52:37.435Z,20.00
2018-06-17T17:57:42.272Z,19.40
2018-06-17T18:02:47.180Z,19.00
2018-06-17T18:07:52.147Z,18.80
2018-06-17T18:12:57.622Z,18.40
2018-06-17T18:18:02.552Z,18.00
2018-06-17T18:23:07.513Z,17.80
2018-06-17T18:28:17.931Z,17.80
2018-06-17T18:33:27.927Z,17.80
2018-06-17T18:38:33.172Z,18.00
2018-06-17T18:43:38.276Z,17.90
2018-06-17T18:48:43.024Z,17.90
2018-06-17T18:53:47.879Z,18.00
2018-06-17T18:58:52.744Z,17.90
2018-06-17T19:03:57.824Z,17.90
2018-06-17T19:09:08.946Z,17.90
2018-06-17T19:14:19.005Z,18.00
2018-06-17T19:19:24.502Z,18.00
2018-06-17T19:24:29.322Z,17.80
2018-06-17T19:29:34.489Z,17.70
2018-06-17T19:34:39.529Z,17.70
2018-06-17T19:39:44.433Z,17.70
2018-06-17T19:44:49.428Z,17.80
2018-06-17T19:49:59.219Z,17.90
2018-06-17T19:55:09.377Z,17.90
2018-06-17T20:00:19.187Z,17.90
2018-06-17T20:05:24.174Z,17.90
2018-06-17T20:10:31.288Z,17.90
2018-06-17T20:15:36.346Z,17.90
2018-06-17T20:20:41.084Z,17.90
2018-06-17T20:25:46.574Z,17.80
2018-06-17T20:30:51.426Z,17.80
2018-06-17T20:41:16.527Z,17.80
2018-06-17T20:46:22.804Z,17.80
2018-06-17T20:51:28.446Z,17.90
2018-06-17T20:56:33.203Z,17.70
2018-06-17T21:01:44.835Z,17.70
2018-06-17T21:06:50.828Z,17.70
2018-06-17T21:11:55.824Z,17.60
2018-06-17T21:17:00.642Z,17.50
2018-06-17T21:22:10.372Z,17.60
2018-06-17T21:27:50.466Z,17.60
2018-06-17T21:32:57.556Z,17.70
2018-06-17T21:38:02.497Z,17.60
2018-06-17T21:43:07.525Z,17.60
2018-06-17T21:48:12.660Z,17.60
2018-06-17T21:53:17.294Z,17.50
2018-06-17T21:58:27.244Z,17.60
2018-06-17T22:03:32.194Z,17.60
2018-06-17T22:08:42.291Z,17.50
2018-06-17T22:13:52.351Z,17.30
2018-06-17T22:18:57.358Z,17.20
2018-06-17T22:24:02.292Z,17.10
2018-06-17T22:29:07.096Z,17.00
2018-06-17T22:34:12.005Z,17.00
2018-06-17T22:39:17.095Z,16.90
2018-06-17T22:44:21.806Z,16.90
2018-06-17T22:49:26.701Z,16.90
2018-06-17T22:59:46.118Z,16.80
2018-06-17T23:04:56.777Z,16.80
2018-06-17T23:10:01.692Z,16.80
2018-06-17T23:15:07.014Z,16.90
2018-06-17T23:20:11.838Z,17.00
2018-06-17T23:25:16.548Z,17.00
2018-06-17T23:30:21.567Z,17.20
2018-06-17T23:35:32.732Z,17.20
2018-06-17T23:40:37.537Z,17.20
2018-06-17T23:45:47.580Z,17.10
2018-06-17T23:50:57.549Z,17.10
2018-06-17T23:56:08.116Z,16.90
